GQQ weather

Galion Municipal Airport
Galion, Ohio, United States

Public forecast

Using degrees Fahrenheit for public forecast. Weather courtesy of forecast.io.

Closest aviation weather report (METAR) to Galion Municipal Airport

Closest report is Mansfield Lahm Regional Airport, 10.3 nm (19.0 km) ENE. Retrieved 2020/05/26 17:52 UTC (1 hour ago):

KMFD 261752Z 11010KT 10SM CLR 31/20 A3010 RMK AO2 SLP182 T03110200 10317 20239 58008

Closest aviation forecast (TAF) to Galion Municipal Airport

Closest forecast is Mansfield Lahm Regional Airport, 10.3 nm (19.0 km) ENE. Retrieved 2020/05/26 18:30 UTC (25 minutes ago):

TAF KMFD 261728Z 2618/2718 15008KT P6SM FEW040 SCT100 FM262300 15008KT P6SM SCT200